sensor_id;sensor_type;location;lat;lon;timestamp;P1;durP1;ratioP1;P2;durP2;ratioP2
74495;SDS011;62979;55.720;37.606;2022-12-10T00:02:15;9.95;;;6.22;;
74495;SDS011;62979;55.720;37.606;2022-12-10T00:04:42;12.55;;;5.85;;
74495;SDS011;62979;55.720;37.606;2022-12-10T00:07:09;10.30;;;6.13;;
74495;SDS011;62979;55.720;37.606;2022-12-10T00:09:36;11.55;;;5.75;;
74495;SDS011;62979;55.720;37.606;2022-12-10T00:12:04;11.40;;;5.80;;
74495;SDS011;62979;55.720;37.606;2022-12-10T00:16:59;8.55;;;5.38;;
74495;SDS011;62979;55.720;37.606;2022-12-10T00:19:26;10.15;;;6.55;;
74495;SDS011;62979;55.720;37.606;2022-12-10T00:21:53;11.32;;;5.88;;
74495;SDS011;62979;55.720;37.606;2022-12-10T00:24:20;11.57;;;6.15;;
74495;SDS011;62979;55.720;37.606;2022-12-10T00:26:47;10.10;;;6.00;;
74495;SDS011;62979;55.720;37.606;2022-12-10T00:29:15;9.45;;;4.80;;
74495;SDS011;62979;55.720;37.606;2022-12-10T00:31:43;9.82;;;5.72;;
74495;SDS011;62979;55.720;37.606;2022-12-10T00:34:10;12.00;;;7.18;;
74495;SDS011;62979;55.720;37.606;2022-12-10T00:36:39;12.05;;;7.10;;
74495;SDS011;62979;55.720;37.606;2022-12-10T00:39:09;10.82;;;5.88;;
74495;SDS011;62979;55.720;37.606;2022-12-10T00:44:04;9.73;;;5.78;;
74495;SDS011;62979;55.720;37.606;2022-12-10T00:46:32;12.73;;;6.05;;
74495;SDS011;62979;55.720;37.606;2022-12-10T00:48:59;15.27;;;7.20;;
74495;SDS011;62979;55.720;37.606;2022-12-10T00:51:27;20.67;;;8.85;;
74495;SDS011;62979;55.720;37.606;2022-12-10T00:53:55;14.85;;;8.57;;
74495;SDS011;62979;55.720;37.606;2022-12-10T00:56:25;19.92;;;8.27;;
74495;SDS011;62979;55.720;37.606;2022-12-10T00:58:54;14.68;;;6.70;;
74495;SDS011;62979;55.720;37.606;2022-12-10T01:01:22;18.77;;;8.82;;
74495;SDS011;62979;55.720;37.606;2022-12-10T01:03:55;18.48;;;8.48;;
74495;SDS011;62979;55.720;37.606;2022-12-10T01:06:25;18.10;;;7.68;;
74495;SDS011;62979;55.720;37.606;2022-12-10T01:08:55;19.23;;;9.70;;
74495;SDS011;62979;55.720;37.606;2022-12-10T01:11:26;19.92;;;9.75;;
74495;SDS011;62979;55.720;37.606;2022-12-10T01:13:56;18.70;;;9.43;;
74495;SDS011;62979;55.720;37.606;2022-12-10T01:16:24;17.85;;;10.15;;
74495;SDS011;62979;55.720;37.606;2022-12-10T01:18:53;19.02;;;9.57;;
74495;SDS011;62979;55.720;37.606;2022-12-10T01:21:21;19.50;;;8.52;;
74495;SDS011;62979;55.720;37.606;2022-12-10T01:26:18;18.23;;;8.80;;
74495;SDS011;62979;55.720;37.606;2022-12-10T01:28:47;21.17;;;9.38;;
74495;SDS011;62979;55.720;37.606;2022-12-10T01:31:17;15.40;;;9.50;;
74495;SDS011;62979;55.720;37.606;2022-12-10T01:33:48;20.55;;;9.40;;
74495;SDS011;62979;55.720;37.606;2022-12-10T01:36:18;22.13;;;9.45;;
74495;SDS011;62979;55.720;37.606;2022-12-10T01:38:47;21.15;;;10.27;;
74495;SDS011;62979;55.720;37.606;2022-12-10T01:41:15;29.88;;;10.90;;
74495;SDS011;62979;55.720;37.606;2022-12-10T01:43:55;24.77;;;10.40;;
74495;SDS011;62979;55.720;37.606;2022-12-10T01:46:26;19.48;;;10.20;;
74495;SDS011;62979;55.720;37.606;2022-12-10T01:48:55;26.60;;;11.45;;
74495;SDS011;62979;55.720;37.606;2022-12-10T01:51:25;28.05;;;11.15;;
74495;SDS011;62979;55.720;37.606;2022-12-10T01:53:55;26.02;;;11.65;;
74495;SDS011;62979;55.720;37.606;2022-12-10T01:56:23;29.45;;;11.23;;
74495;SDS011;62979;55.720;37.606;2022-12-10T01:58:51;27.58;;;13.23;;
74495;SDS011;62979;55.720;37.606;2022-12-10T02:01:24;30.90;;;14.55;;
74495;SDS011;62979;55.720;37.606;2022-12-10T02:04:05;29.23;;;12.23;;
74495;SDS011;62979;55.720;37.606;2022-12-10T02:06:53;25.55;;;12.05;;
74495;SDS011;62979;55.720;37.606;2022-12-10T02:09:27;33.67;;;12.52;;
74495;SDS011;62979;55.720;37.606;2022-12-10T02:12:06;27.52;;;13.57;;
74495;SDS011;62979;55.720;37.606;2022-12-10T02:14:45;27.13;;;11.88;;
74495;SDS011;62979;55.720;37.606;2022-12-10T02:17:23;26.80;;;12.32;;
74495;SDS011;62979;55.720;37.606;2022-12-10T02:19:59;29.02;;;13.27;;
74495;SDS011;62979;55.720;37.606;2022-12-10T02:22:37;25.95;;;12.75;;
74495;SDS011;62979;55.720;37.606;2022-12-10T02:25:12;32.75;;;13.88;;
74495;SDS011;62979;55.720;37.606;2022-12-10T02:27:46;31.30;;;14.07;;
74495;SDS011;62979;55.720;37.606;2022-12-10T02:30:25;25.95;;;12.30;;
74495;SDS011;62979;55.720;37.606;2022-12-10T02:32:52;30.48;;;13.20;;
74495;SDS011;62979;55.720;37.606;2022-12-10T02:35:22;27.98;;;12.98;;
74495;SDS011;62979;55.720;37.606;2022-12-10T02:37:55;26.52;;;12.73;;
74495;SDS011;62979;55.720;37.606;2022-12-10T02:40:28;28.40;;;13.80;;
74495;SDS011;62979;55.720;37.606;2022-12-10T02:43:00;26.83;;;12.63;;
74495;SDS011;62979;55.720;37.606;2022-12-10T02:45:28;27.05;;;13.18;;
74495;SDS011;62979;55.720;37.606;2022-12-10T02:47:59;25.42;;;12.40;;
74495;SDS011;62979;55.720;37.606;2022-12-10T02:50:29;25.60;;;13.02;;
74495;SDS011;62979;55.720;37.606;2022-12-10T02:52:56;24.35;;;13.32;;
74495;SDS011;62979;55.720;37.606;2022-12-10T02:55:23;33.10;;;15.07;;
74495;SDS011;62979;55.720;37.606;2022-12-10T02:57:58;27.85;;;13.63;;
74495;SDS011;62979;55.720;37.606;2022-12-10T03:00:43;22.95;;;11.73;;
74495;SDS011;62979;55.720;37.606;2022-12-10T03:03:26;26.63;;;12.60;;
74495;SDS011;62979;55.720;37.606;2022-12-10T03:06:09;27.95;;;11.55;;
74495;SDS011;62979;55.720;37.606;2022-12-10T03:08:47;24.58;;;12.15;;
74495;SDS011;62979;55.720;37.606;2022-12-10T03:11:21;27.20;;;12.38;;
74495;SDS011;62979;55.720;37.606;2022-12-10T03:13:51;25.65;;;12.48;;
74495;SDS011;62979;55.720;37.606;2022-12-10T03:16:28;29.35;;;12.98;;
74495;SDS011;62979;55.720;37.606;2022-12-10T03:19:02;26.52;;;13.13;;
74495;SDS011;62979;55.720;37.606;2022-12-10T03:21:34;26.88;;;12.23;;
74495;SDS011;62979;55.720;37.606;2022-12-10T03:24:05;29.35;;;14.65;;
74495;SDS011;62979;55.720;37.606;2022-12-10T03:26:34;33.17;;;13.00;;
74495;SDS011;62979;55.720;37.606;2022-12-10T03:29:05;26.10;;;13.23;;
74495;SDS011;62979;55.720;37.606;2022-12-10T03:31:39;30.50;;;14.35;;
74495;SDS011;62979;55.720;37.606;2022-12-10T03:34:08;24.63;;;13.18;;
74495;SDS011;62979;55.720;37.606;2022-12-10T03:36:37;32.08;;;14.20;;
74495;SDS011;62979;55.720;37.606;2022-12-10T03:39:06;31.08;;;13.55;;
74495;SDS011;62979;55.720;37.606;2022-12-10T03:41:34;25.45;;;12.75;;
74495;SDS011;62979;55.720;37.606;2022-12-10T03:44:01;29.23;;;13.20;;
74495;SDS011;62979;55.720;37.606;2022-12-10T03:46:28;33.45;;;13.85;;
74495;SDS011;62979;55.720;37.606;2022-12-10T03:48:59;30.42;;;12.25;;
74495;SDS011;62979;55.720;37.606;2022-12-10T03:51:28;27.67;;;13.48;;
74495;SDS011;62979;55.720;37.606;2022-12-10T03:53:55;27.85;;;13.85;;
74495;SDS011;62979;55.720;37.606;2022-12-10T03:56:22;29.55;;;10.65;;
74495;SDS011;62979;55.720;37.606;2022-12-10T03:58:49;24.83;;;12.13;;
74495;SDS011;62979;55.720;37.606;2022-12-10T04:01:16;21.55;;;11.52;;
74495;SDS011;62979;55.720;37.606;2022-12-10T04:03:43;29.70;;;12.00;;
74495;SDS011;62979;55.720;37.606;2022-12-10T04:06:12;25.88;;;13.10;;
74495;SDS011;62979;55.720;37.606;2022-12-10T04:08:41;29.05;;;15.20;;
74495;SDS011;62979;55.720;37.606;2022-12-10T04:11:08;34.05;;;14.60;;
74495;SDS011;62979;55.720;37.606;2022-12-10T04:13:37;32.08;;;14.07;;
74495;SDS011;62979;55.720;37.606;2022-12-10T04:16:23;28.98;;;12.13;;
74495;SDS011;62979;55.720;37.606;2022-12-10T04:18:55;35.55;;;14.80;;
74495;SDS011;62979;55.720;37.606;2022-12-10T04:21:26;30.20;;;14.23;;
74495;SDS011;62979;55.720;37.606;2022-12-10T04:24:14;31.15;;;13.57;;
74495;SDS011;62979;55.720;37.606;2022-12-10T04:27:00;35.90;;;14.30;;
74495;SDS011;62979;55.720;37.606;2022-12-10T04:29:32;31.98;;;15.15;;
74495;SDS011;62979;55.720;37.606;2022-12-10T04:31:59;32.88;;;13.32;;
74495;SDS011;62979;55.720;37.606;2022-12-10T04:34:26;36.95;;;14.77;;
74495;SDS011;62979;55.720;37.606;2022-12-10T04:36:54;35.63;;;14.77;;
74495;SDS011;62979;55.720;37.606;2022-12-10T04:39:24;32.92;;;13.70;;
74495;SDS011;62979;55.720;37.606;2022-12-10T04:41:51;35.60;;;15.10;;
74495;SDS011;62979;55.720;37.606;2022-12-10T04:44:18;30.77;;;12.73;;
74495;SDS011;62979;55.720;37.606;2022-12-10T04:46:47;32.30;;;14.13;;
74495;SDS011;62979;55.720;37.606;2022-12-10T04:49:14;43.35;;;14.75;;
74495;SDS011;62979;55.720;37.606;2022-12-10T04:51:42;31.17;;;13.48;;
74495;SDS011;62979;55.720;37.606;2022-12-10T04:54:11;27.85;;;11.15;;
74495;SDS011;62979;55.720;37.606;2022-12-10T04:56:39;35.83;;;14.75;;
74495;SDS011;62979;55.720;37.606;2022-12-10T04:59:07;31.33;;;14.70;;
74495;SDS011;62979;55.720;37.606;2022-12-10T05:01:35;30.48;;;13.70;;
74495;SDS011;62979;55.720;37.606;2022-12-10T05:04:03;37.92;;;15.60;;
74495;SDS011;62979;55.720;37.606;2022-12-10T05:06:32;26.45;;;14.40;;
74495;SDS011;62979;55.720;37.606;2022-12-10T05:08:59;32.25;;;14.70;;
74495;SDS011;62979;55.720;37.606;2022-12-10T05:11:29;30.85;;;14.70;;
74495;SDS011;62979;55.720;37.606;2022-12-10T05:13:57;31.33;;;15.18;;
74495;SDS011;62979;55.720;37.606;2022-12-10T05:16:26;32.15;;;15.43;;
74495;SDS011;62979;55.720;37.606;2022-12-10T05:18:55;38.63;;;15.43;;
74495;SDS011;62979;55.720;37.606;2022-12-10T05:21:23;30.15;;;14.45;;
74495;SDS011;62979;55.720;37.606;2022-12-10T05:24:13;31.92;;;15.23;;
74495;SDS011;62979;55.720;37.606;2022-12-10T05:26:41;34.92;;;14.60;;
74495;SDS011;62979;55.720;37.606;2022-12-10T05:29:09;32.80;;;15.65;;
74495;SDS011;62979;55.720;37.606;2022-12-10T05:31:38;28.92;;;14.23;;
74495;SDS011;62979;55.720;37.606;2022-12-10T05:34:05;25.20;;;13.60;;
74495;SDS011;62979;55.720;37.606;2022-12-10T05:36:33;31.70;;;15.57;;
74495;SDS011;62979;55.720;37.606;2022-12-10T05:39:00;32.95;;;14.43;;
74495;SDS011;62979;55.720;37.606;2022-12-10T05:41:27;33.55;;;17.27;;
74495;SDS011;62979;55.720;37.606;2022-12-10T05:43:59;30.02;;;14.80;;
74495;SDS011;62979;55.720;37.606;2022-12-10T05:46:26;38.30;;;16.80;;
74495;SDS011;62979;55.720;37.606;2022-12-10T05:48:56;37.85;;;16.20;;
74495;SDS011;62979;55.720;37.606;2022-12-10T05:51:25;38.08;;;16.63;;
74495;SDS011;62979;55.720;37.606;2022-12-10T05:53:55;31.23;;;15.68;;
74495;SDS011;62979;55.720;37.606;2022-12-10T05:56:24;37.45;;;16.67;;
74495;SDS011;62979;55.720;37.606;2022-12-10T05:58:53;34.33;;;15.52;;
74495;SDS011;62979;55.720;37.606;2022-12-10T06:01:27;34.33;;;15.07;;
74495;SDS011;62979;55.720;37.606;2022-12-10T06:03:57;35.40;;;16.48;;
74495;SDS011;62979;55.720;37.606;2022-12-10T06:06:25;28.92;;;15.48;;
74495;SDS011;62979;55.720;37.606;2022-12-10T06:08:54;32.15;;;16.45;;
74495;SDS011;62979;55.720;37.606;2022-12-10T06:11:22;37.05;;;16.63;;
74495;SDS011;62979;55.720;37.606;2022-12-10T06:13:51;35.90;;;15.82;;
74495;SDS011;62979;55.720;37.606;2022-12-10T06:16:19;36.03;;;17.50;;
74495;SDS011;62979;55.720;37.606;2022-12-10T06:18:48;40.72;;;19.58;;
74495;SDS011;62979;55.720;37.606;2022-12-10T06:23:44;40.53;;;17.15;;
74495;SDS011;62979;55.720;37.606;2022-12-10T06:26:12;37.70;;;17.90;;
74495;SDS011;62979;55.720;37.606;2022-12-10T06:28:43;36.53;;;17.92;;
74495;SDS011;62979;55.720;37.606;2022-12-10T06:31:12;38.35;;;16.90;;
74495;SDS011;62979;55.720;37.606;2022-12-10T06:33:40;42.80;;;19.98;;
74495;SDS011;62979;55.720;37.606;2022-12-10T06:36:09;34.92;;;17.67;;
74495;SDS011;62979;55.720;37.606;2022-12-10T06:38:39;38.95;;;17.45;;
74495;SDS011;62979;55.720;37.606;2022-12-10T06:41:07;39.33;;;16.35;;
74495;SDS011;62979;55.720;37.606;2022-12-10T06:43:38;39.72;;;18.17;;
74495;SDS011;62979;55.720;37.606;2022-12-10T06:46:05;35.92;;;15.77;;
74495;SDS011;62979;55.720;37.606;2022-12-10T06:51:00;28.58;;;15.63;;
74495;SDS011;62979;55.720;37.606;2022-12-10T06:53:29;39.30;;;17.15;;
74495;SDS011;62979;55.720;37.606;2022-12-10T06:55:57;34.38;;;15.82;;
74495;SDS011;62979;55.720;37.606;2022-12-10T06:58:26;36.67;;;17.38;;
74495;SDS011;62979;55.720;37.606;2022-12-10T07:00:54;34.80;;;16.88;;
74495;SDS011;62979;55.720;37.606;2022-12-10T07:03:28;33.70;;;15.18;;
74495;SDS011;62979;55.720;37.606;2022-12-10T07:05:56;36.38;;;16.80;;
74495;SDS011;62979;55.720;37.606;2022-12-10T07:08:24;42.05;;;17.70;;
74495;SDS011;62979;55.720;37.606;2022-12-10T07:10:52;42.65;;;17.05;;
74495;SDS011;62979;55.720;37.606;2022-12-10T07:15:46;30.35;;;15.40;;
74495;SDS011;62979;55.720;37.606;2022-12-10T07:18:13;37.40;;;17.73;;
74495;SDS011;62979;55.720;37.606;2022-12-10T07:20:40;34.90;;;15.27;;
74495;SDS011;62979;55.720;37.606;2022-12-10T07:23:06;40.50;;;18.70;;
74495;SDS011;62979;55.720;37.606;2022-12-10T07:25:33;42.42;;;19.55;;
74495;SDS011;62979;55.720;37.606;2022-12-10T07:28:02;45.30;;;18.63;;
74495;SDS011;62979;55.720;37.606;2022-12-10T07:32:57;43.70;;;18.90;;
74495;SDS011;62979;55.720;37.606;2022-12-10T07:35:23;44.75;;;18.05;;
74495;SDS011;62979;55.720;37.606;2022-12-10T07:37:50;49.80;;;21.45;;
74495;SDS011;62979;55.720;37.606;2022-12-10T07:40:17;49.72;;;20.02;;
74495;SDS011;62979;55.720;37.606;2022-12-10T07:42:44;48.60;;;23.55;;
74495;SDS011;62979;55.720;37.606;2022-12-10T07:45:12;46.05;;;20.42;;
74495;SDS011;62979;55.720;37.606;2022-12-10T07:47:39;38.80;;;19.70;;
74495;SDS011;62979;55.720;37.606;2022-12-10T07:50:06;45.88;;;16.45;;
74495;SDS011;62979;55.720;37.606;2022-12-10T07:52:34;44.38;;;19.85;;
74495;SDS011;62979;55.720;37.606;2022-12-10T07:55:01;46.83;;;19.45;;
74495;SDS011;62979;55.720;37.606;2022-12-10T07:57:28;45.28;;;19.55;;
74495;SDS011;62979;55.720;37.606;2022-12-10T07:59:55;44.38;;;19.80;;
74495;SDS011;62979;55.720;37.606;2022-12-10T08:02:24;52.35;;;19.63;;
74495;SDS011;62979;55.720;37.606;2022-12-10T08:07:18;30.50;;;16.27;;
74495;SDS011;62979;55.720;37.606;2022-12-10T08:09:45;43.17;;;19.00;;
74495;SDS011;62979;55.720;37.606;2022-12-10T08:12:12;37.97;;;16.40;;
74495;SDS011;62979;55.720;37.606;2022-12-10T08:14:39;55.17;;;20.90;;
74495;SDS011;62979;55.720;37.606;2022-12-10T08:17:06;38.10;;;17.85;;
74495;SDS011;62979;55.720;37.606;2022-12-10T08:19:34;43.13;;;20.23;;
74495;SDS011;62979;55.720;37.606;2022-12-10T08:22:01;39.47;;;18.75;;
74495;SDS011;62979;55.720;37.606;2022-12-10T08:24:27;48.95;;;20.90;;
74495;SDS011;62979;55.720;37.606;2022-12-10T08:26:54;47.17;;;20.20;;
74495;SDS011;62979;55.720;37.606;2022-12-10T08:29:21;41.65;;;19.63;;
74495;SDS011;62979;55.720;37.606;2022-12-10T08:31:48;37.20;;;19.20;;
74495;SDS011;62979;55.720;37.606;2022-12-10T08:34:16;44.53;;;21.50;;
74495;SDS011;62979;55.720;37.606;2022-12-10T08:36:46;35.47;;;16.05;;
74495;SDS011;62979;55.720;37.606;2022-12-10T08:39:13;44.30;;;20.13;;
74495;SDS011;62979;55.720;37.606;2022-12-10T08:41:41;41.75;;;19.50;;
74495;SDS011;62979;55.720;37.606;2022-12-10T08:44:09;45.88;;;19.75;;
74495;SDS011;62979;55.720;37.606;2022-12-10T08:46:36;38.60;;;19.25;;
74495;SDS011;62979;55.720;37.606;2022-12-10T08:49:04;51.35;;;19.60;;
74495;SDS011;62979;55.720;37.606;2022-12-10T08:51:32;39.88;;;21.23;;
74495;SDS011;62979;55.720;37.606;2022-12-10T08:54:01;42.97;;;21.95;;
74495;SDS011;62979;55.720;37.606;2022-12-10T08:56:29;46.72;;;20.42;;
74495;SDS011;62979;55.720;37.606;2022-12-10T08:58:56;48.08;;;22.88;;
74495;SDS011;62979;55.720;37.606;2022-12-10T09:01:23;53.90;;;23.02;;
74495;SDS011;62979;55.720;37.606;2022-12-10T09:03:50;52.83;;;23.42;;
74495;SDS011;62979;55.720;37.606;2022-12-10T09:08:49;44.20;;;22.65;;
74495;SDS011;62979;55.720;37.606;2022-12-10T09:11:18;62.75;;;22.85;;
74495;SDS011;62979;55.720;37.606;2022-12-10T09:13:48;51.17;;;22.45;;
74495;SDS011;62979;55.720;37.606;2022-12-10T09:16:16;51.85;;;22.17;;
74495;SDS011;62979;55.720;37.606;2022-12-10T09:18:43;59.10;;;25.27;;
74495;SDS011;62979;55.720;37.606;2022-12-10T09:21:11;60.65;;;25.25;;
74495;SDS011;62979;55.720;37.606;2022-12-10T09:23:40;67.72;;;25.65;;
74495;SDS011;62979;55.720;37.606;2022-12-10T09:26:09;61.92;;;25.13;;
74495;SDS011;62979;55.720;37.606;2022-12-10T09:28:40;54.08;;;21.23;;
74495;SDS011;62979;55.720;37.606;2022-12-10T09:31:08;56.20;;;22.65;;
74495;SDS011;62979;55.720;37.606;2022-12-10T09:36:04;42.95;;;17.05;;
74495;SDS011;62979;55.720;37.606;2022-12-10T09:38:33;58.28;;;20.90;;
74495;SDS011;62979;55.720;37.606;2022-12-10T09:41:02;55.75;;;24.00;;
74495;SDS011;62979;55.720;37.606;2022-12-10T09:43:36;62.40;;;23.38;;
74495;SDS011;62979;55.720;37.606;2022-12-10T09:46:17;53.45;;;22.80;;
74495;SDS011;62979;55.720;37.606;2022-12-10T09:48:59;58.58;;;24.77;;
74495;SDS011;62979;55.720;37.606;2022-12-10T09:51:39;46.47;;;21.52;;
74495;SDS011;62979;55.720;37.606;2022-12-10T09:54:12;73.05;;;24.45;;
74495;SDS011;62979;55.720;37.606;2022-12-10T09:56:48;65.18;;;26.45;;
74495;SDS011;62979;55.720;37.606;2022-12-10T09:59:20;61.53;;;26.33;;
74495;SDS011;62979;55.720;37.606;2022-12-10T10:01:58;52.20;;;24.02;;
74495;SDS011;62979;55.720;37.606;2022-12-10T10:04:42;53.28;;;23.55;;
74495;SDS011;62979;55.720;37.606;2022-12-10T10:07:09;60.90;;;27.17;;
74495;SDS011;62979;55.720;37.606;2022-12-10T10:09:46;53.97;;;26.25;;
74495;SDS011;62979;55.720;37.606;2022-12-10T10:12:14;60.47;;;25.20;;
74495;SDS011;62979;55.720;37.606;2022-12-10T10:14:43;55.17;;;22.60;;
74495;SDS011;62979;55.720;37.606;2022-12-10T10:17:11;65.28;;;28.83;;
74495;SDS011;62979;55.720;37.606;2022-12-10T10:19:45;60.70;;;25.42;;
74495;SDS011;62979;55.720;37.606;2022-12-10T10:22:12;78.53;;;26.58;;
74495;SDS011;62979;55.720;37.606;2022-12-10T10:24:40;60.88;;;24.27;;
74495;SDS011;62979;55.720;37.606;2022-12-10T10:27:12;65.85;;;26.60;;
74495;SDS011;62979;55.720;37.606;2022-12-10T10:29:44;63.35;;;25.95;;
74495;SDS011;62979;55.720;37.606;2022-12-10T10:32:14;56.50;;;24.13;;
74495;SDS011;62979;55.720;37.606;2022-12-10T10:34:44;58.25;;;25.70;;
74495;SDS011;62979;55.720;37.606;2022-12-10T10:37:19;61.45;;;24.10;;
74495;SDS011;62979;55.720;37.606;2022-12-10T10:39:50;57.17;;;24.85;;
74495;SDS011;62979;55.720;37.606;2022-12-10T10:42:34;67.47;;;25.25;;
74495;SDS011;62979;55.720;37.606;2022-12-10T10:45:28;73.55;;;25.70;;
74495;SDS011;62979;55.720;37.606;2022-12-10T10:48:05;60.25;;;21.92;;
74495;SDS011;62979;55.720;37.606;2022-12-10T10:50:38;54.00;;;22.48;;
74495;SDS011;62979;55.720;37.606;2022-12-10T10:53:30;64.43;;;24.90;;
74495;SDS011;62979;55.720;37.606;2022-12-10T10:56:06;62.45;;;24.75;;
74495;SDS011;62979;55.720;37.606;2022-12-10T10:58:45;57.40;;;22.48;;
74495;SDS011;62979;55.720;37.606;2022-12-10T11:01:25;63.78;;;23.85;;
74495;SDS011;62979;55.720;37.606;2022-12-10T11:04:10;59.75;;;24.15;;
74495;SDS011;62979;55.720;37.606;2022-12-10T11:06:40;62.10;;;25.17;;
74495;SDS011;62979;55.720;37.606;2022-12-10T11:09:13;65.85;;;25.00;;
74495;SDS011;62979;55.720;37.606;2022-12-10T11:11:49;54.85;;;23.63;;
74495;SDS011;62979;55.720;37.606;2022-12-10T11:14:24;63.00;;;23.80;;
74495;SDS011;62979;55.720;37.606;2022-12-10T11:17:03;58.65;;;19.85;;
74495;SDS011;62979;55.720;37.606;2022-12-10T11:19:53;57.92;;;19.33;;
74495;SDS011;62979;55.720;37.606;2022-12-10T11:22:25;65.50;;;23.20;;
74495;SDS011;62979;55.720;37.606;2022-12-10T11:24:54;62.97;;;22.25;;
74495;SDS011;62979;55.720;37.606;2022-12-10T11:27:25;53.17;;;21.08;;
74495;SDS011;62979;55.720;37.606;2022-12-10T11:30:11;71.43;;;20.33;;
74495;SDS011;62979;55.720;37.606;2022-12-10T11:33:02;55.65;;;22.67;;
74495;SDS011;62979;55.720;37.606;2022-12-10T11:35:50;57.42;;;22.35;;
74495;SDS011;62979;55.720;37.606;2022-12-10T11:38:33;54.22;;;19.60;;
74495;SDS011;62979;55.720;37.606;2022-12-10T11:41:15;53.45;;;21.92;;
74495;SDS011;62979;55.720;37.606;2022-12-10T11:44:07;52.88;;;21.45;;
74495;SDS011;62979;55.720;37.606;2022-12-10T11:46:57;47.78;;;21.77;;
74495;SDS011;62979;55.720;37.606;2022-12-10T11:50:00;63.45;;;23.85;;
74495;SDS011;62979;55.720;37.606;2022-12-10T11:52:55;48.03;;;18.77;;
74495;SDS011;62979;55.720;37.606;2022-12-10T11:55:44;54.97;;;20.15;;
74495;SDS011;62979;55.720;37.606;2022-12-10T11:58:32;41.50;;;19.02;;
74495;SDS011;62979;55.720;37.606;2022-12-10T12:01:22;45.42;;;19.27;;
74495;SDS011;62979;55.720;37.606;2022-12-10T12:04:16;46.53;;;20.33;;
74495;SDS011;62979;55.720;37.606;2022-12-10T12:07:05;42.88;;;18.48;;
74495;SDS011;62979;55.720;37.606;2022-12-10T12:09:56;42.63;;;17.40;;
74495;SDS011;62979;55.720;37.606;2022-12-10T12:13:02;41.35;;;17.98;;
74495;SDS011;62979;55.720;37.606;2022-12-10T12:15:36;46.10;;;17.52;;
74495;SDS011;62979;55.720;37.606;2022-12-10T12:18:12;43.03;;;17.83;;
74495;SDS011;62979;55.720;37.606;2022-12-10T12:20:47;46.47;;;18.30;;
74495;SDS011;62979;55.720;37.606;2022-12-10T12:23:23;34.13;;;17.30;;
74495;SDS011;62979;55.720;37.606;2022-12-10T12:25:58;42.53;;;18.17;;
74495;SDS011;62979;55.720;37.606;2022-12-10T12:28:34;36.33;;;18.23;;
74495;SDS011;62979;55.720;37.606;2022-12-10T12:31:09;35.45;;;15.48;;
74495;SDS011;62979;55.720;37.606;2022-12-10T12:33:45;27.33;;;14.95;;
74495;SDS011;62979;55.720;37.606;2022-12-10T12:36:21;37.08;;;14.23;;
74495;SDS011;62979;55.720;37.606;2022-12-10T12:38:55;37.08;;;17.05;;
74495;SDS011;62979;55.720;37.606;2022-12-10T12:41:34;34.65;;;15.90;;
74495;SDS011;62979;55.720;37.606;2022-12-10T12:44:14;30.25;;;13.85;;
74495;SDS011;62979;55.720;37.606;2022-12-10T12:46:54;37.50;;;15.68;;
74495;SDS011;62979;55.720;37.606;2022-12-10T12:49:26;32.92;;;13.30;;
74495;SDS011;62979;55.720;37.606;2022-12-10T12:52:00;33.40;;;14.00;;
74495;SDS011;62979;55.720;37.606;2022-12-10T12:54:43;36.13;;;16.27;;
74495;SDS011;62979;55.720;37.606;2022-12-10T12:57:14;35.72;;;14.38;;
74495;SDS011;62979;55.720;37.606;2022-12-10T12:59:56;36.58;;;16.35;;
74495;SDS011;62979;55.720;37.606;2022-12-10T13:02:46;32.53;;;15.85;;
74495;SDS011;62979;55.720;37.606;2022-12-10T13:05:27;27.88;;;14.70;;
74495;SDS011;62979;55.720;37.606;2022-12-10T13:11:14;32.38;;;14.02;;
74495;SDS011;62979;55.720;37.606;2022-12-10T13:16:59;33.40;;;15.27;;
74495;SDS011;62979;55.720;37.606;2022-12-10T13:19:50;38.67;;;16.02;;
74495;SDS011;62979;55.720;37.606;2022-12-10T13:25:20;27.08;;;14.80;;
74495;SDS011;62979;55.720;37.606;2022-12-10T13:28:20;34.20;;;15.60;;
74495;SDS011;62979;55.720;37.606;2022-12-10T13:31:06;34.75;;;16.42;;
74495;SDS011;62979;55.720;37.606;2022-12-10T13:33:52;34.00;;;15.02;;
74495;SDS011;62979;55.720;37.606;2022-12-10T13:36:34;32.78;;;16.80;;
74495;SDS011;62979;55.720;37.606;2022-12-10T13:39:31;32.15;;;15.75;;
74495;SDS011;62979;55.720;37.606;2022-12-10T13:45:25;29.30;;;14.35;;
74495;SDS011;62979;55.720;37.606;2022-12-10T13:50:59;30.67;;;13.70;;
74495;SDS011;62979;55.720;37.606;2022-12-10T13:53:55;28.73;;;14.82;;
74495;SDS011;62979;55.720;37.606;2022-12-10T13:56:45;20.55;;;11.63;;
74495;SDS011;62979;55.720;37.606;2022-12-10T13:59:28;27.30;;;14.77;;
74495;SDS011;62979;55.720;37.606;2022-12-10T14:02:18;25.10;;;14.57;;
74495;SDS011;62979;55.720;37.606;2022-12-10T14:05:14;29.27;;;13.95;;
74495;SDS011;62979;55.720;37.606;2022-12-10T14:10:27;25.60;;;12.20;;
74495;SDS011;62979;55.720;37.606;2022-12-10T14:13:01;23.15;;;13.48;;
74495;SDS011;62979;55.720;37.606;2022-12-10T14:15:30;25.05;;;14.73;;
74495;SDS011;62979;55.720;37.606;2022-12-10T14:18:03;31.73;;;13.57;;
74495;SDS011;62979;55.720;37.606;2022-12-10T14:20:37;24.88;;;12.38;;
74495;SDS011;62979;55.720;37.606;2022-12-10T14:23:20;25.73;;;13.98;;
74495;SDS011;62979;55.720;37.606;2022-12-10T14:26:05;28.80;;;14.18;;
74495;SDS011;62979;55.720;37.606;2022-12-10T14:28:39;28.33;;;14.23;;
74495;SDS011;62979;55.720;37.606;2022-12-10T14:31:11;25.05;;;13.45;;
74495;SDS011;62979;55.720;37.606;2022-12-10T14:33:45;32.22;;;15.50;;
74495;SDS011;62979;55.720;37.606;2022-12-10T14:36:16;30.80;;;15.60;;
74495;SDS011;62979;55.720;37.606;2022-12-10T14:38:52;24.90;;;13.10;;
74495;SDS011;62979;55.720;37.606;2022-12-10T14:41:20;24.98;;;14.48;;
74495;SDS011;62979;55.720;37.606;2022-12-10T14:43:51;23.50;;;15.57;;
74495;SDS011;62979;55.720;37.606;2022-12-10T14:46:20;27.60;;;15.13;;
74495;SDS011;62979;55.720;37.606;2022-12-10T14:48:51;30.35;;;14.50;;
74495;SDS011;62979;55.720;37.606;2022-12-10T14:51:20;23.98;;;14.63;;
74495;SDS011;62979;55.720;37.606;2022-12-10T14:53:50;29.17;;;15.57;;
74495;SDS011;62979;55.720;37.606;2022-12-10T14:56:21;24.15;;;12.10;;
74495;SDS011;62979;55.720;37.606;2022-12-10T14:58:59;22.40;;;13.63;;
74495;SDS011;62979;55.720;37.606;2022-12-10T15:01:36;25.30;;;13.00;;
74495;SDS011;62979;55.720;37.606;2022-12-10T15:04:11;23.15;;;13.95;;
74495;SDS011;62979;55.720;37.606;2022-12-10T15:06:42;24.23;;;10.40;;
74495;SDS011;62979;55.720;37.606;2022-12-10T15:09:12;24.95;;;13.27;;
74495;SDS011;62979;55.720;37.606;2022-12-10T15:11:44;27.25;;;14.13;;
74495;SDS011;62979;55.720;37.606;2022-12-10T15:14:20;23.08;;;12.68;;
74495;SDS011;62979;55.720;37.606;2022-12-10T15:16:49;25.90;;;15.88;;
74495;SDS011;62979;55.720;37.606;2022-12-10T15:19:19;20.13;;;11.65;;
74495;SDS011;62979;55.720;37.606;2022-12-10T15:21:50;20.65;;;12.63;;
74495;SDS011;62979;55.720;37.606;2022-12-10T15:24:25;21.80;;;13.13;;
74495;SDS011;62979;55.720;37.606;2022-12-10T15:27:01;21.60;;;12.23;;